sensor_id;sensor_type;location;lat;lon;timestamp;temperature;humidity
20866;DHT22;10593;48.398;10.698;2023-03-08T00:01:11;7.20;40.80
20866;DHT22;10593;48.398;10.698;2023-03-08T00:03:38;7.20;40.70
20866;DHT22;10593;48.398;10.698;2023-03-08T00:06:09;7.20;40.70
20866;DHT22;10593;48.398;10.698;2023-03-08T00:08:37;7.20;40.70
20866;DHT22;10593;48.398;10.698;2023-03-08T00:11:07;7.20;40.60
20866;DHT22;10593;48.398;10.698;2023-03-08T00:13:34;7.20;40.60
20866;DHT22;10593;48.398;10.698;2023-03-08T00:16:02;7.20;40.60
20866;DHT22;10593;48.398;10.698;2023-03-08T00:18:30;7.10;40.60
20866;DHT22;10593;48.398;10.698;2023-03-08T00:21:06;7.10;40.60
20866;DHT22;10593;48.398;10.698;2023-03-08T00:23:36;7.10;40.60
20866;DHT22;10593;48.398;10.698;2023-03-08T00:26:03;7.10;40.60
20866;DHT22;10593;48.398;10.698;2023-03-08T00:28:29;7.10;40.70
20866;DHT22;10593;48.398;10.698;2023-03-08T00:31:03;7.10;40.70
20866;DHT22;10593;48.398;10.698;2023-03-08T00:33:31;7.10;40.70
20866;DHT22;10593;48.398;10.698;2023-03-08T00:35:59;7.10;40.80
20866;DHT22;10593;48.398;10.698;2023-03-08T00:38:38;7.10;40.70
20866;DHT22;10593;48.398;10.698;2023-03-08T00:41:04;7.10;40.70
20866;DHT22;10593;48.398;10.698;2023-03-08T00:43:30;7.10;40.70
20866;DHT22;10593;48.398;10.698;2023-03-08T00:45:56;7.00;40.70
20866;DHT22;10593;48.398;10.698;2023-03-08T00:48:22;7.00;40.70
20866;DHT22;10593;48.398;10.698;2023-03-08T00:50:48;7.00;40.70
20866;DHT22;10593;48.398;10.698;2023-03-08T00:53:14;7.00;40.70
20866;DHT22;10593;48.398;10.698;2023-03-08T00:55:56;7.00;40.70
20866;DHT22;10593;48.398;10.698;2023-03-08T00:58:24;7.00;40.70
20866;DHT22;10593;48.398;10.698;2023-03-08T01:00:52;7.00;40.70
20866;DHT22;10593;48.398;10.698;2023-03-08T01:03:18;7.00;40.70
20866;DHT22;10593;48.398;10.698;2023-03-08T01:05:47;7.00;40.80
20866;DHT22;10593;48.398;10.698;2023-03-08T01:08:18;7.00;41.40
20866;DHT22;10593;48.398;10.698;2023-03-08T01:10:52;7.00;40.80
20866;DHT22;10593;48.398;10.698;2023-03-08T01:13:22;7.00;40.80
20866;DHT22;10593;48.398;10.698;2023-03-08T01:15:49;6.90;40.70
20866;DHT22;10593;48.398;10.698;2023-03-08T01:18:14;6.90;40.80
20866;DHT22;10593;48.398;10.698;2023-03-08T01:20:40;6.90;40.80
20866;DHT22;10593;48.398;10.698;2023-03-08T01:23:06;6.90;40.80
20866;DHT22;10593;48.398;10.698;2023-03-08T01:25:32;6.90;40.90
20866;DHT22;10593;48.398;10.698;2023-03-08T01:27:59;6.90;40.90
20866;DHT22;10593;48.398;10.698;2023-03-08T01:30:24;6.90;40.90
20866;DHT22;10593;48.398;10.698;2023-03-08T01:32:50;6.90;40.90
20866;DHT22;10593;48.398;10.698;2023-03-08T01:35:16;6.90;41.50
20866;DHT22;10593;48.398;10.698;2023-03-08T01:37:42;6.90;40.90
20866;DHT22;10593;48.398;10.698;2023-03-08T01:40:15;6.90;41.00
20866;DHT22;10593;48.398;10.698;2023-03-08T01:42:41;6.90;41.50
20866;DHT22;10593;48.398;10.698;2023-03-08T01:48:31;6.80;40.90
20866;DHT22;10593;48.398;10.698;2023-03-08T01:51:03;6.80;40.90
20866;DHT22;10593;48.398;10.698;2023-03-08T01:53:32;6.80;40.90
20866;DHT22;10593;48.398;10.698;2023-03-08T01:56:00;6.80;41.00
20866;DHT22;10593;48.398;10.698;2023-03-08T01:58:26;6.80;41.00
20866;DHT22;10593;48.398;10.698;2023-03-08T02:00:51;6.80;41.00
20866;DHT22;10593;48.398;10.698;2023-03-08T02:03:17;6.80;41.10
20866;DHT22;10593;48.398;10.698;2023-03-08T02:05:44;6.80;41.20
20866;DHT22;10593;48.398;10.698;2023-03-08T02:08:11;6.80;41.20
20866;DHT22;10593;48.398;10.698;2023-03-08T02:10:37;6.70;41.10
20866;DHT22;10593;48.398;10.698;2023-03-08T02:13:05;6.70;41.00
20866;DHT22;10593;48.398;10.698;2023-03-08T02:15:31;6.70;41.00
20866;DHT22;10593;48.398;10.698;2023-03-08T02:17:57;6.70;41.00
20866;DHT22;10593;48.398;10.698;2023-03-08T02:20:38;6.70;41.10
20866;DHT22;10593;48.398;10.698;2023-03-08T02:23:16;6.70;41.10
20866;DHT22;10593;48.398;10.698;2023-03-08T02:28:23;6.70;41.10
20866;DHT22;10593;48.398;10.698;2023-03-08T02:30:50;6.70;41.10
20866;DHT22;10593;48.398;10.698;2023-03-08T02:33:16;6.70;41.10
20866;DHT22;10593;48.398;10.698;2023-03-08T02:35:43;6.70;41.10
20866;DHT22;10593;48.398;10.698;2023-03-08T02:38:11;6.70;41.10
20866;DHT22;10593;48.398;10.698;2023-03-08T02:40:38;6.60;41.10
20866;DHT22;10593;48.398;10.698;2023-03-08T02:43:05;6.60;41.20
20866;DHT22;10593;48.398;10.698;2023-03-08T02:45:31;6.60;41.20
20866;DHT22;10593;48.398;10.698;2023-03-08T02:47:59;6.60;41.30
20866;DHT22;10593;48.398;10.698;2023-03-08T02:50:26;6.60;41.90
20866;DHT22;10593;48.398;10.698;2023-03-08T02:52:52;6.60;41.30
20866;DHT22;10593;48.398;10.698;2023-03-08T02:55:17;6.60;41.30
20866;DHT22;10593;48.398;10.698;2023-03-08T02:57:43;6.60;41.40
20866;DHT22;10593;48.398;10.698;2023-03-08T03:00:09;6.60;41.40
20866;DHT22;10593;48.398;10.698;2023-03-08T03:02:36;6.60;41.50
20866;DHT22;10593;48.398;10.698;2023-03-08T03:05:08;6.60;41.50
20866;DHT22;10593;48.398;10.698;2023-03-08T03:07:38;6.60;41.60
20866;DHT22;10593;48.398;10.698;2023-03-08T03:10:07;6.50;41.40
20866;DHT22;10593;48.398;10.698;2023-03-08T03:12:35;6.50;41.40
20866;DHT22;10593;48.398;10.698;2023-03-08T03:15:02;6.50;41.50
20866;DHT22;10593;48.398;10.698;2023-03-08T03:17:30;6.50;41.50
20866;DHT22;10593;48.398;10.698;2023-03-08T03:19:56;6.50;41.60
20866;DHT22;10593;48.398;10.698;2023-03-08T03:22:22;6.50;41.70
20866;DHT22;10593;48.398;10.698;2023-03-08T03:24:49;6.50;41.70
20866;DHT22;10593;48.398;10.698;2023-03-08T03:27:16;6.50;41.80
20866;DHT22;10593;48.398;10.698;2023-03-08T03:29:43;6.40;41.70
20866;DHT22;10593;48.398;10.698;2023-03-08T03:32:08;6.50;41.80
20866;DHT22;10593;48.398;10.698;2023-03-08T03:34:34;6.40;41.80
20866;DHT22;10593;48.398;10.698;2023-03-08T03:37:00;6.50;41.80
20866;DHT22;10593;48.398;10.698;2023-03-08T03:39:25;6.40;41.80
20866;DHT22;10593;48.398;10.698;2023-03-08T03:41:51;6.40;41.80
20866;DHT22;10593;48.398;10.698;2023-03-08T03:44:17;6.40;41.80
20866;DHT22;10593;48.398;10.698;2023-03-08T03:46:42;6.40;42.40
20866;DHT22;10593;48.398;10.698;2023-03-08T03:49:08;6.30;41.90
20866;DHT22;10593;48.398;10.698;2023-03-08T03:51:34;6.30;41.90
20866;DHT22;10593;48.398;10.698;2023-03-08T03:53:59;6.30;42.00
20866;DHT22;10593;48.398;10.698;2023-03-08T03:56:26;6.30;42.00
20866;DHT22;10593;48.398;10.698;2023-03-08T03:58:53;6.30;42.10
20866;DHT22;10593;48.398;10.698;2023-03-08T04:01:28;6.30;42.20
20866;DHT22;10593;48.398;10.698;2023-03-08T04:03:56;6.30;42.30
20866;DHT22;10593;48.398;10.698;2023-03-08T04:08:52;6.20;42.40
20866;DHT22;10593;48.398;10.698;2023-03-08T04:11:22;6.20;42.90
20866;DHT22;10593;48.398;10.698;2023-03-08T04:13:49;6.20;42.40
20866;DHT22;10593;48.398;10.698;2023-03-08T04:16:17;6.20;42.50
20866;DHT22;10593;48.398;10.698;2023-03-08T04:18:45;6.20;42.60
20866;DHT22;10593;48.398;10.698;2023-03-08T04:21:11;6.20;42.60
20866;DHT22;10593;48.398;10.698;2023-03-08T04:23:38;6.20;42.60
20866;DHT22;10593;48.398;10.698;2023-03-08T04:26:05;6.20;42.70
20866;DHT22;10593;48.398;10.698;2023-03-08T04:28:31;6.10;42.70
20866;DHT22;10593;48.398;10.698;2023-03-08T04:30:59;6.10;42.80
20866;DHT22;10593;48.398;10.698;2023-03-08T04:33:25;6.10;42.90
20866;DHT22;10593;48.398;10.698;2023-03-08T04:35:51;6.20;43.00
20866;DHT22;10593;48.398;10.698;2023-03-08T04:38:17;6.10;42.90
20866;DHT22;10593;48.398;10.698;2023-03-08T04:40:50;6.10;42.90
20866;DHT22;10593;48.398;10.698;2023-03-08T04:43:35;6.10;43.00
20866;DHT22;10593;48.398;10.698;2023-03-08T04:46:02;6.10;43.00
20866;DHT22;10593;48.398;10.698;2023-03-08T04:48:29;6.10;43.10
20866;DHT22;10593;48.398;10.698;2023-03-08T04:50:57;6.10;43.20
20866;DHT22;10593;48.398;10.698;2023-03-08T04:53:26;6.10;43.30
20866;DHT22;10593;48.398;10.698;2023-03-08T04:55:53;6.10;43.30
20866;DHT22;10593;48.398;10.698;2023-03-08T04:58:19;6.00;43.30
20866;DHT22;10593;48.398;10.698;2023-03-08T05:00:46;6.10;43.30
20866;DHT22;10593;48.398;10.698;2023-03-08T05:03:11;6.00;43.30
20866;DHT22;10593;48.398;10.698;2023-03-08T05:05:44;6.00;43.30
20866;DHT22;10593;48.398;10.698;2023-03-08T05:08:11;6.00;43.30
20866;DHT22;10593;48.398;10.698;2023-03-08T05:10:37;6.00;43.30
20866;DHT22;10593;48.398;10.698;2023-03-08T05:13:03;6.00;43.30
20866;DHT22;10593;48.398;10.698;2023-03-08T05:15:29;6.00;43.30
20866;DHT22;10593;48.398;10.698;2023-03-08T05:17:54;6.00;43.40
20866;DHT22;10593;48.398;10.698;2023-03-08T05:20:20;6.00;43.40
20866;DHT22;10593;48.398;10.698;2023-03-08T05:22:45;6.00;43.40
20866;DHT22;10593;48.398;10.698;2023-03-08T05:25:12;6.00;43.60
20866;DHT22;10593;48.398;10.698;2023-03-08T05:27:38;6.00;44.10
20866;DHT22;10593;48.398;10.698;2023-03-08T05:30:04;5.90;43.50
20866;DHT22;10593;48.398;10.698;2023-03-08T05:32:30;5.90;43.60
20866;DHT22;10593;48.398;10.698;2023-03-08T05:34:56;5.90;43.60
20866;DHT22;10593;48.398;10.698;2023-03-08T05:37:22;5.90;44.20
20866;DHT22;10593;48.398;10.698;2023-03-08T05:39:50;5.90;43.70
20866;DHT22;10593;48.398;10.698;2023-03-08T05:42:17;5.90;43.80
20866;DHT22;10593;48.398;10.698;2023-03-08T05:44:44;5.90;43.80
20866;DHT22;10593;48.398;10.698;2023-03-08T05:47:10;5.90;43.80
20866;DHT22;10593;48.398;10.698;2023-03-08T05:49:36;5.90;43.90
20866;DHT22;10593;48.398;10.698;2023-03-08T05:52:02;5.90;43.90
20866;DHT22;10593;48.398;10.698;2023-03-08T05:54:28;5.90;43.90
20866;DHT22;10593;48.398;10.698;2023-03-08T05:56:54;5.90;44.00
20866;DHT22;10593;48.398;10.698;2023-03-08T05:59:20;5.90;44.00
20866;DHT22;10593;48.398;10.698;2023-03-08T06:01:45;5.90;44.10
20866;DHT22;10593;48.398;10.698;2023-03-08T06:04:11;5.90;44.10
20866;DHT22;10593;48.398;10.698;2023-03-08T06:06:37;5.90;44.10
20866;DHT22;10593;48.398;10.698;2023-03-08T06:09:02;6.00;44.20
20866;DHT22;10593;48.398;10.698;2023-03-08T06:11:28;5.90;44.20
20866;DHT22;10593;48.398;10.698;2023-03-08T06:13:54;5.90;44.30
20866;DHT22;10593;48.398;10.698;2023-03-08T06:16:20;5.90;44.30
20866;DHT22;10593;48.398;10.698;2023-03-08T06:18:45;5.90;44.40
20866;DHT22;10593;48.398;10.698;2023-03-08T06:21:13;5.90;44.40
20866;DHT22;10593;48.398;10.698;2023-03-08T06:23:44;5.90;44.40
20866;DHT22;10593;48.398;10.698;2023-03-08T06:26:10;5.90;44.40
20866;DHT22;10593;48.398;10.698;2023-03-08T06:28:37;6.00;44.50
20866;DHT22;10593;48.398;10.698;2023-03-08T06:31:05;6.00;44.70
20866;DHT22;10593;48.398;10.698;2023-03-08T06:33:32;6.00;44.70
20866;DHT22;10593;48.398;10.698;2023-03-08T06:36:10;6.00;44.70
20866;DHT22;10593;48.398;10.698;2023-03-08T06:38:38;6.00;45.00
20866;DHT22;10593;48.398;10.698;2023-03-08T06:41:06;6.00;44.90
20866;DHT22;10593;48.398;10.698;2023-03-08T06:43:33;6.00;44.90
20866;DHT22;10593;48.398;10.698;2023-03-08T06:46:04;6.00;44.90
20866;DHT22;10593;48.398;10.698;2023-03-08T06:48:32;6.00;45.00
20866;DHT22;10593;48.398;10.698;2023-03-08T06:50:58;6.00;45.00
20866;DHT22;10593;48.398;10.698;2023-03-08T06:53:24;6.00;44.90
20866;DHT22;10593;48.398;10.698;2023-03-08T06:55:51;6.00;45.00
20866;DHT22;10593;48.398;10.698;2023-03-08T06:58:16;6.00;45.00
20866;DHT22;10593;48.398;10.698;2023-03-08T07:00:42;6.00;45.60
20866;DHT22;10593;48.398;10.698;2023-03-08T07:03:10;6.10;45.20
20866;DHT22;10593;48.398;10.698;2023-03-08T07:05:36;6.10;45.20
20866;DHT22;10593;48.398;10.698;2023-03-08T07:08:02;6.10;45.20
20866;DHT22;10593;48.398;10.698;2023-03-08T07:10:28;6.10;45.30
20866;DHT22;10593;48.398;10.698;2023-03-08T07:12:53;6.10;45.40
20866;DHT22;10593;48.398;10.698;2023-03-08T07:15:21;6.10;45.40
20866;DHT22;10593;48.398;10.698;2023-03-08T07:17:49;6.10;45.50
20866;DHT22;10593;48.398;10.698;2023-03-08T07:20:20;6.10;45.60
20866;DHT22;10593;48.398;10.698;2023-03-08T07:22:47;6.20;45.70
20866;DHT22;10593;48.398;10.698;2023-03-08T07:25:14;6.20;45.70
20866;DHT22;10593;48.398;10.698;2023-03-08T07:27:42;6.20;45.80
20866;DHT22;10593;48.398;10.698;2023-03-08T07:30:09;6.20;45.80
20866;DHT22;10593;48.398;10.698;2023-03-08T07:32:36;6.20;45.80
20866;DHT22;10593;48.398;10.698;2023-03-08T07:35:06;6.20;45.80
20866;DHT22;10593;48.398;10.698;2023-03-08T07:37:33;6.20;45.70
20866;DHT22;10593;48.398;10.698;2023-03-08T07:39:58;6.20;45.80
20866;DHT22;10593;48.398;10.698;2023-03-08T07:42:24;6.30;46.10
20866;DHT22;10593;48.398;10.698;2023-03-08T07:44:52;6.30;46.30
20866;DHT22;10593;48.398;10.698;2023-03-08T07:47:18;6.30;46.40
20866;DHT22;10593;48.398;10.698;2023-03-08T07:49:44;6.30;46.60
20866;DHT22;10593;48.398;10.698;2023-03-08T07:52:09;6.30;46.80
20866;DHT22;10593;48.398;10.698;2023-03-08T07:54:35;6.30;46.90
20866;DHT22;10593;48.398;10.698;2023-03-08T07:57:01;6.30;47.00
20866;DHT22;10593;48.398;10.698;2023-03-08T07:59:27;6.30;47.20
20866;DHT22;10593;48.398;10.698;2023-03-08T08:01:52;6.40;47.40
20866;DHT22;10593;48.398;10.698;2023-03-08T08:04:18;6.40;47.70
20866;DHT22;10593;48.398;10.698;2023-03-08T08:06:44;6.40;47.90
20866;DHT22;10593;48.398;10.698;2023-03-08T08:09:11;6.50;48.00
20866;DHT22;10593;48.398;10.698;2023-03-08T08:11:39;6.50;48.10
20866;DHT22;10593;48.398;10.698;2023-03-08T08:14:05;6.60;48.10
20866;DHT22;10593;48.398;10.698;2023-03-08T08:16:31;6.60;48.20
20866;DHT22;10593;48.398;10.698;2023-03-08T08:18:57;6.60;48.10
20866;DHT22;10593;48.398;10.698;2023-03-08T08:21:23;6.60;48.00
20866;DHT22;10593;48.398;10.698;2023-03-08T08:23:48;6.70;48.10
20866;DHT22;10593;48.398;10.698;2023-03-08T08:26:17;6.70;48.00
20866;DHT22;10593;48.398;10.698;2023-03-08T08:28:47;6.70;47.90
20866;DHT22;10593;48.398;10.698;2023-03-08T08:31:19;6.80;47.90
20866;DHT22;10593;48.398;10.698;2023-03-08T08:33:47;6.80;47.80
20866;DHT22;10593;48.398;10.698;2023-03-08T08:36:15;6.90;47.90
20866;DHT22;10593;48.398;10.698;2023-03-08T08:38:43;6.90;47.90
20866;DHT22;10593;48.398;10.698;2023-03-08T08:41:11;6.90;47.70
20866;DHT22;10593;48.398;10.698;2023-03-08T08:43:40;6.90;47.70
20866;DHT22;10593;48.398;10.698;2023-03-08T08:46:06;7.00;47.70
20866;DHT22;10593;48.398;10.698;2023-03-08T08:48:33;7.00;47.70
20866;DHT22;10593;48.398;10.698;2023-03-08T08:50:59;7.00;47.70
20866;DHT22;10593;48.398;10.698;2023-03-08T08:53:26;7.00;47.60
20866;DHT22;10593;48.398;10.698;2023-03-08T08:55:52;7.10;47.60
20866;DHT22;10593;48.398;10.698;2023-03-08T08:58:17;7.10;47.60
20866;DHT22;10593;48.398;10.698;2023-03-08T09:00:43;7.10;47.60
20866;DHT22;10593;48.398;10.698;2023-03-08T09:03:12;7.10;47.60
20866;DHT22;10593;48.398;10.698;2023-03-08T09:05:40;7.10;47.60
20866;DHT22;10593;48.398;10.698;2023-03-08T09:08:08;7.20;47.70
20866;DHT22;10593;48.398;10.698;2023-03-08T09:10:37;7.20;47.60
20866;DHT22;10593;48.398;10.698;2023-03-08T09:13:04;7.20;47.70
20866;DHT22;10593;48.398;10.698;2023-03-08T09:15:30;7.20;47.80
20866;DHT22;10593;48.398;10.698;2023-03-08T09:17:56;7.20;47.90
20866;DHT22;10593;48.398;10.698;2023-03-08T09:20:22;7.30;48.10
20866;DHT22;10593;48.398;10.698;2023-03-08T09:22:48;7.30;48.20
20866;DHT22;10593;48.398;10.698;2023-03-08T09:25:14;7.30;48.30
20866;DHT22;10593;48.398;10.698;2023-03-08T09:27:41;7.30;48.50
20866;DHT22;10593;48.398;10.698;2023-03-08T09:30:12;7.30;48.50
20866;DHT22;10593;48.398;10.698;2023-03-08T09:32:39;7.30;48.70
20866;DHT22;10593;48.398;10.698;2023-03-08T09:35:05;7.30;48.80
20866;DHT22;10593;48.398;10.698;2023-03-08T09:37:31;7.30;48.80
20866;DHT22;10593;48.398;10.698;2023-03-08T09:39:58;7.30;48.90
20866;DHT22;10593;48.398;10.698;2023-03-08T09:42:30;7.40;49.00
20866;DHT22;10593;48.398;10.698;2023-03-08T09:45:20;7.40;49.30
20866;DHT22;10593;48.398;10.698;2023-03-08T09:48:06;7.30;49.30
20866;DHT22;10593;48.398;10.698;2023-03-08T09:53:31;7.40;49.60
20866;DHT22;10593;48.398;10.698;2023-03-08T09:56:06;7.30;49.70
20866;DHT22;10593;48.398;10.698;2023-03-08T09:59:03;7.40;49.50
20866;DHT22;10593;48.398;10.698;2023-03-08T10:01:44;7.40;49.50
20866;DHT22;10593;48.398;10.698;2023-03-08T10:04:32;7.40;49.60
20866;DHT22;10593;48.398;10.698;2023-03-08T10:07:33;7.30;49.60
20866;DHT22;10593;48.398;10.698;2023-03-08T10:10:32;7.40;49.80
20866;DHT22;10593;48.398;10.698;2023-03-08T10:15:46;7.40;49.80
20866;DHT22;10593;48.398;10.698;2023-03-08T10:18:27;7.40;50.00
20866;DHT22;10593;48.398;10.698;2023-03-08T10:21:00;7.40;50.10
20866;DHT22;10593;48.398;10.698;2023-03-08T10:23:29;7.40;50.10
20866;DHT22;10593;48.398;10.698;2023-03-08T10:25:59;7.40;50.10
20866;DHT22;10593;48.398;10.698;2023-03-08T10:28:26;7.40;50.10
20866;DHT22;10593;48.398;10.698;2023-03-08T10:30:54;7.40;50.10
20866;DHT22;10593;48.398;10.698;2023-03-08T10:33:31;7.40;50.10
20866;DHT22;10593;48.398;10.698;2023-03-08T10:36:07;7.40;50.10
20866;DHT22;10593;48.398;10.698;2023-03-08T10:38:37;7.50;50.20
20866;DHT22;10593;48.398;10.698;2023-03-08T10:41:09;7.50;50.10
20866;DHT22;10593;48.398;10.698;2023-03-08T10:43:51;7.50;50.10
20866;DHT22;10593;48.398;10.698;2023-03-08T10:46:21;7.50;50.30
20866;DHT22;10593;48.398;10.698;2023-03-08T10:48:49;7.50;50.10
20866;DHT22;10593;48.398;10.698;2023-03-08T10:51:16;7.50;50.10
20866;DHT22;10593;48.398;10.698;2023-03-08T10:53:57;7.60;50.20
20866;DHT22;10593;48.398;10.698;2023-03-08T10:56:42;7.60;50.70
20866;DHT22;10593;48.398;10.698;2023-03-08T10:59:20;7.60;50.70
20866;DHT22;10593;48.398;10.698;2023-03-08T11:01:55;7.60;50.70
20866;DHT22;10593;48.398;10.698;2023-03-08T11:04:25;7.70;50.70
20866;DHT22;10593;48.398;10.698;2023-03-08T11:06:53;7.70;50.60
20866;DHT22;10593;48.398;10.698;2023-03-08T11:09:30;7.70;50.50
20866;DHT22;10593;48.398;10.698;2023-03-08T11:11:58;7.70;50.70
20866;DHT22;10593;48.398;10.698;2023-03-08T11:14:26;7.80;50.50
20866;DHT22;10593;48.398;10.698;2023-03-08T11:17:04;7.80;50.60
20866;DHT22;10593;48.398;10.698;2023-03-08T11:19:46;7.80;50.70
20866;DHT22;10593;48.398;10.698;2023-03-08T11:22:50;7.80;50.50
20866;DHT22;10593;48.398;10.698;2023-03-08T11:25:44;7.90;50.70
20866;DHT22;10593;48.398;10.698;2023-03-08T11:34:02;7.90;50.50
20866;DHT22;10593;48.398;10.698;2023-03-08T11:36:41;8.00;50.80
20866;DHT22;10593;48.398;10.698;2023-03-08T11:42:19;8.00;50.50
20866;DHT22;10593;48.398;10.698;2023-03-08T11:44:56;8.00;50.70
20866;DHT22;10593;48.398;10.698;2023-03-08T11:50:28;8.10;50.70
20866;DHT22;10593;48.398;10.698;2023-03-08T12:01:19;8.20;51.40
20866;DHT22;10593;48.398;10.698;2023-03-08T12:03:52;8.30;51.70
20866;DHT22;10593;48.398;10.698;2023-03-08T12:06:28;8.30;51.90
20866;DHT22;10593;48.398;10.698;2023-03-08T12:12:04;8.40;52.20
20866;DHT22;10593;48.398;10.698;2023-03-08T12:15:13;8.40;53.00
20866;DHT22;10593;48.398;10.698;2023-03-08T12:17:53;8.50;52.70
20866;DHT22;10593;48.398;10.698;2023-03-08T12:20:26;8.50;52.60
20866;DHT22;10593;48.398;10.698;2023-03-08T12:23:18;8.60;52.70
20866;DHT22;10593;48.398;10.698;2023-03-08T12:25:56;8.60;53.00
20866;DHT22;10593;48.398;10.698;2023-03-08T12:28:33;8.70;53.00
20866;DHT22;10593;48.398;10.698;2023-03-08T12:31:35;8.70;53.10
20866;DHT22;10593;48.398;10.698;2023-03-08T12:37:03;8.80;53.30
20866;DHT22;10593;48.398;10.698;2023-03-08T12:39:33;8.90;53.10
20866;DHT22;10593;48.398;10.698;2023-03-08T12:42:13;9.00;53.30
20866;DHT22;10593;48.398;10.698;2023-03-08T12:44:41;9.00;53.50
20866;DHT22;10593;48.398;10.698;2023-03-08T12:49:40;9.10;53.50
20866;DHT22;10593;48.398;10.698;2023-03-08T12:55:03;9.20;53.70
20866;DHT22;10593;48.398;10.698;2023-03-08T12:57:48;9.20;53.60
20866;DHT22;10593;48.398;10.698;2023-03-08T13:02:44;9.30;53.70
20866;DHT22;10593;48.398;10.698;2023-03-08T13:16:17;9.40;53.90
20866;DHT22;10593;48.398;10.698;2023-03-08T13:21:45;9.50;54.30
20866;DHT22;10593;48.398;10.698;2023-03-08T13:30:44;9.60;54.60
20866;DHT22;10593;48.398;10.698;2023-03-08T13:33:29;9.70;54.80
20866;DHT22;10593;48.398;10.698;2023-03-08T13:36:06;9.70;54.90
20866;DHT22;10593;48.398;10.698;2023-03-08T13:38:41;9.80;55.10
20866;DHT22;10593;48.398;10.698;2023-03-08T13:41:07;9.80;55.00
20866;DHT22;10593;48.398;10.698;2023-03-08T13:43:34;9.90;55.10
20866;DHT22;10593;48.398;10.698;2023-03-08T13:46:03;9.90;55.30
20866;DHT22;10593;48.398;10.698;2023-03-08T13:48:35;10.00;54.50
20866;DHT22;10593;48.398;10.698;2023-03-08T13:51:01;10.00;54.30
20866;DHT22;10593;48.398;10.698;2023-03-08T13:53:31;10.10;54.40
20866;DHT22;10593;48.398;10.698;2023-03-08T13:56:03;10.10;54.60
20866;DHT22;10593;48.398;10.698;2023-03-08T14:01:08;10.20;54.60
20866;DHT22;10593;48.398;10.698;2023-03-08T14:03:35;10.20;55.00
20866;DHT22;10593;48.398;10.698;2023-03-08T14:06:01;10.20;54.30
20866;DHT22;10593;48.398;10.698;2023-03-08T14:08:27;10.30;54.40
20866;DHT22;10593;48.398;10.698;2023-03-08T14:10:58;10.30;54.50
20866;DHT22;10593;48.398;10.698;2023-03-08T14:13:29;10.30;54.70
20866;DHT22;10593;48.398;10.698;2023-03-08T14:16:00;10.40;54.80
20866;DHT22;10593;48.398;10.698;2023-03-08T14:18:32;10.40;54.60
20866;DHT22;10593;48.398;10.698;2023-03-08T14:21:19;10.40;54.60
20866;DHT22;10593;48.398;10.698;2023-03-08T14:23:49;10.40;54.90
20866;DHT22;10593;48.398;10.698;2023-03-08T14:26:23;10.50;54.70
20866;DHT22;10593;48.398;10.698;2023-03-08T14:29:22;10.50;54.90
20866;DHT22;10593;48.398;10.698;2023-03-08T14:32:22;10.50;54.90
20866;DHT22;10593;48.398;10.698;2023-03-08T14:35:05;10.60;55.00
20866;DHT22;10593;48.398;10.698;2023-03-08T14:37:43;10.60;54.80
20866;DHT22;10593;48.398;10.698;2023-03-08T14:42:43;10.70;55.40
20866;DHT22;10593;48.398;10.698;2023-03-08T14:47:57;10.80;55.20
20866;DHT22;10593;48.398;10.698;2023-03-08T14:50:25;10.80;55.20
20866;DHT22;10593;48.398;10.698;2023-03-08T14:52:55;10.80;55.10
20866;DHT22;10593;48.398;10.698;2023-03-08T14:55:28;10.90;55.10
20866;DHT22;10593;48.398;10.698;2023-03-08T14:58:02;10.90;55.00
20866;DHT22;10593;48.398;10.698;2023-03-08T15:00:30;10.90;54.90
20866;DHT22;10593;48.398;10.698;2023-03-08T15:02:57;11.00;54.90
20866;DHT22;10593;48.398;10.698;2023-03-08T15:05:24;11.00;54.90
20866;DHT22;10593;48.398;10.698;2023-03-08T15:07:51;11.00;54.90
20866;DHT22;10593;48.398;10.698;2023-03-08T15:10:28;11.00;54.80
20866;DHT22;10593;48.398;10.698;2023-03-08T15:12:57;11.10;55.00
20866;DHT22;10593;48.398;10.698;2023-03-08T15:15:23;11.10;54.80
20866;DHT22;10593;48.398;10.698;2023-03-08T15:17:49;11.20;55.00
20866;DHT22;10593;48.398;10.698;2023-03-08T15:20:15;11.20;54.90
20866;DHT22;10593;48.398;10.698;2023-03-08T15:22:47;11.20;54.80
20866;DHT22;10593;48.398;10.698;2023-03-08T15:25:22;11.20;54.90
20866;DHT22;10593;48.398;10.698;2023-03-08T15:27:51;11.30;54.90
20866;DHT22;10593;48.398;10.698;2023-03-08T15:30:20;11.30;54.80
20866;DHT22;10593;48.398;10.698;2023-03-08T15:32:52;11.40;54.80
20866;DHT22;10593;48.398;10.698;2023-03-08T15:35:18;11.40;54.80
20866;DHT22;10593;48.398;10.698;2023-03-08T15:37:44;11.40;54.80
20866;DHT22;10593;48.398;10.698;2023-03-08T15:40:14;11.40;54.80
20866;DHT22;10593;48.398;10.698;2023-03-08T15:42:41;11.50;55.00
20866;DHT22;10593;48.398;10.698;2023-03-08T15:45:08;11.50;54.90
20866;DHT22;10593;48.398;10.698;2023-03-08T15:47:35;11.50;54.80
20866;DHT22;10593;48.398;10.698;2023-03-08T15:50:02;11.50;54.70
20866;DHT22;10593;48.398;10.698;2023-03-08T15:52:29;11.60;54.80
20866;DHT22;10593;48.398;10.698;2023-03-08T15:54:56;11.60;54.70
20866;DHT22;10593;48.398;10.698;2023-03-08T15:57:22;11.60;54.60
20866;DHT22;10593;48.398;10.698;2023-03-08T15:59:48;11.60;54.50
20866;DHT22;10593;48.398;10.698;2023-03-08T16:02:16;11.60;54.40
20866;DHT22;10593;48.398;10.698;2023-03-08T16:04:43;11.60;54.60
20866;DHT22;10593;48.398;10.698;2023-03-08T16:07:17;11.70;54.40
20866;DHT22;10593;48.398;10.698;2023-03-08T16:09:45;11.60;54.30
20866;DHT22;10593;48.398;10.698;2023-03-08T16:12:13;11.70;54.40
20866;DHT22;10593;48.398;10.698;2023-03-08T16:14:40;11.70;54.40
20866;DHT22;10593;48.398;10.698;2023-03-08T16:17:11;11.70;54.30
20866;DHT22;10593;48.398;10.698;2023-03-08T16:19:37;11.70;54.20
20866;DHT22;10593;48.398;10.698;2023-03-08T16:22:02;11.70;54.20
20866;DHT22;10593;48.398;10.698;2023-03-08T16:24:29;11.70;54.20
20866;DHT22;10593;48.398;10.698;2023-03-08T16:26:55;11.70;54.10
20866;DHT22;10593;48.398;10.698;2023-03-08T16:29:22;11.70;54.10
20866;DHT22;10593;48.398;10.698;2023-03-08T16:31:48;11.70;54.10
20866;DHT22;10593;48.398;10.698;2023-03-08T16:34:14;11.70;54.60
20866;DHT22;10593;48.398;10.698;2023-03-08T16:36:40;11.70;54.00
20866;DHT22;10593;48.398;10.698;2023-03-08T16:39:07;11.70;54.00
20866;DHT22;10593;48.398;10.698;2023-03-08T16:41:34;11.70;54.00
20866;DHT22;10593;48.398;10.698;2023-03-08T16:44:02;11.70;54.00
20866;DHT22;10593;48.398;10.698;2023-03-08T16:46:28;11.70;54.00
20866;DHT22;10593;48.398;10.698;2023-03-08T16:48:54;11.70;54.00
20866;DHT22;10593;48.398;10.698;2023-03-08T16:51:23;11.70;54.00
20866;DHT22;10593;48.398;10.698;2023-03-08T16:53:51;11.70;54.00
20866;DHT22;10593;48.398;10.698;2023-03-08T16:56:19;11.80;54.00
20866;DHT22;10593;48.398;10.698;2023-03-08T16:58:46;11.80;54.00